Time;durP1;ratioP1;P1;durP2;ratioP2;P2;SDS_P1;SDS_P2;PMS_P1;PMS_P2;Temp;Humidity;BMP_temperature;BMP_pressure;BME280_temperature;BME280_humidity;BME280_pressure;Samples;Min_cycle;Max_cycle;Signal;HPM_P1;HPM_P2
2021/12/21 00:00:51;;;;;;;4.10;2.80;;;;;;;-4.58;88.88;98752.38;106159;1316;138563;-63
2021/12/21 00:03:19;;;;;;;5.40;3.60;;;;;;;-4.60;88.99;98756.85;105914;1316;22408;-63
2021/12/21 00:05:47;;;;;;;3.10;2.80;;;;;;;-4.61;89.04;98765.67;106175;1316;139885;-63
2021/12/21 00:08:16;;;;;;;3.80;2.30;;;;;;;-4.60;89.01;98771.27;105852;1317;22958;-63
2021/12/21 00:11:05;;;;;;;6.10;2.60;;;;;;;-4.65;90.21;98774.59;106089;1317;23082;-64
2021/12/21 00:18:47;;;;;;;6.20;3.50;;;;;;;-4.80;90.18;98784.15;106175;1316;140401;-65
2021/12/21 00:23:47;;;;;;;7.20;3.50;;;;;;;-4.91;90.70;98792.45;106204;1316;22465;-62
2021/12/21 00:26:20;;;;;;;6.70;3.90;;;;;;;-4.96;90.84;98793.56;104392;1316;138148;-58
2021/12/21 00:28:57;;;;;;;5.90;3.30;;;;;;;-5.01;91.03;98803.05;102127;1315;22663;-58
2021/12/21 00:31:28;;;;;;;7.20;4.30;;;;;;;-5.04;91.04;98807.65;101992;1316;140571;-57
2021/12/21 00:33:56;;;;;;;4.10;2.40;;;;;;;-5.07;90.83;98805.11;106260;1315;22384;-57
2021/12/21 00:36:25;;;;;;;3.10;2.30;;;;;;;-5.14;90.70;98808.15;106070;1315;138337;-57
2021/12/21 00:38:54;;;;;;;2.70;2.00;;;;;;;-5.20;90.31;98814.50;106273;1315;22277;-58
2021/12/21 00:41:22;;;;;;;3.80;2.30;;;;;;;-5.25;90.30;98815.14;106261;1320;23317;-58
2021/12/21 00:43:50;;;;;;;4.80;2.50;;;;;;;-5.30;90.68;98811.60;106171;1316;138775;-58
2021/12/21 00:46:17;;;;;;;5.00;2.10;;;;;;;-5.33;90.72;98810.36;106118;1318;22407;-57
2021/12/21 00:48:51;;;;;;;5.40;2.20;;;;;;;-5.37;90.78;98812.55;106167;1315;138938;-60
2021/12/21 00:51:21;;;;;;;4.90;2.20;;;;;;;-5.40;90.64;98811.79;106133;1316;22450;-58
2021/12/21 00:53:49;;;;;;;4.60;2.10;;;;;;;-5.40;90.64;98813.05;106175;1317;22402;-58
2021/12/21 00:56:17;;;;;;;3.10;1.90;;;;;;;-5.41;90.33;98822.70;106050;1316;137802;-58
2021/12/21 00:58:45;;;;;;;2.70;1.80;;;;;;;-5.43;90.14;98827.56;106073;1316;23417;-58
2021/12/21 01:01:14;;;;;;;2.70;1.70;;;;;;;-5.44;89.80;98834.42;106092;1316;138484;-58
2021/12/21 01:03:46;;;;;;;3.50;2.00;;;;;;;-5.47;89.64;98836.16;106266;1316;23215;-58
2021/12/21 01:09:32;;;;;;;4.10;2.30;;;;;;;-5.50;89.04;98842.04;106133;1316;22404;-58
2021/12/21 01:12:05;;;;;;;3.10;1.70;;;;;;;-5.52;89.08;98845.42;106116;1316;138696;-59
2021/12/21 01:14:58;;;;;;;3.60;2.20;;;;;;;-5.54;88.70;98848.35;106220;1315;22494;-59
2021/12/21 01:17:36;;;;;;;2.80;1.70;;;;;;;-5.57;88.32;98853.42;105781;1316;22400;-59
2021/12/21 01:20:24;;;;;;;4.20;1.90;;;;;;;-5.63;87.49;98850.50;106152;1316;138055;-59
2021/12/21 01:25:44;;;;;;;3.20;1.80;;;;;;;-5.72;86.11;98851.52;106135;1316;139133;-60
2021/12/21 01:31:01;;;;;;;2.30;1.60;;;;;;;-5.78;85.85;98860.94;106170;1315;137785;-58
2021/12/21 01:36:08;;;;;;;3.10;2.10;;;;;;;-5.82;85.28;98870.00;106139;1316;138124;-58
2021/12/21 01:38:55;;;;;;;5.00;2.50;;;;;;;-5.83;84.49;98867.52;106102;1316;22450;-58
2021/12/21 01:41:37;;;;;;;4.90;1.70;;;;;;;-5.84;84.33;98871.70;106099;1318;24558;-57
2021/12/21 01:49:42;;;;;;;3.00;2.10;;;;;;;-5.92;83.10;98879.17;105976;1317;139591;-59
2021/12/21 01:52:12;;;;;;;4.50;2.40;;;;;;;-5.97;83.45;98886.41;106097;1321;22502;-60
2021/12/21 01:54:40;;;;;;;2.10;1.60;;;;;;;-6.00;83.88;98891.11;106042;1318;138132;-60
2021/12/21 01:57:08;;;;;;;4.40;2.30;;;;;;;-6.03;84.08;98887.92;106270;1315;23234;-60
2021/12/21 01:59:37;;;;;;;3.40;1.90;;;;;;;-6.03;83.93;98896.27;106260;1316;22415;-60
2021/12/21 02:02:05;;;;;;;2.40;1.70;;;;;;;-6.04;83.73;98894.79;106196;1315;138204;-60
2021/12/21 02:04:33;;;;;;;3.50;2.10;;;;;;;-6.06;83.25;98899.20;106261;1316;22572;-60
2021/12/21 02:07:02;;;;;;;3.70;1.90;;;;;;;-6.09;82.70;98900.92;106173;1316;137923;-60
2021/12/21 02:09:37;;;;;;;5.00;2.50;;;;;;;-6.10;82.59;98907.21;105251;1323;22379;-61
2021/12/21 02:12:06;;;;;;;6.80;2.50;;;;;;;-6.11;82.32;98915.27;105946;1315;139349;-60
2021/12/21 02:14:39;;;;;;;5.50;2.20;;;;;;;-6.13;81.87;98917.65;106325;1316;22432;-61
2021/12/21 02:20:05;;;;;;;4.40;1.80;;;;;;;-6.16;82.05;98922.77;106143;1319;138825;-61
2021/12/21 02:22:37;;;;;;;3.20;2.10;;;;;;;-6.18;82.03;98922.27;106149;1315;22526;-61
2021/12/21 02:30:41;;;;;;;6.80;3.10;;;;;;;-6.22;80.86;98935.65;105984;1316;138933;-61
2021/12/21 02:33:09;;;;;;;5.60;2.90;;;;;;;-6.24;80.95;98937.60;106194;1316;22436;-60
2021/12/21 02:35:37;;;;;;;6.30;3.00;;;;;;;-6.25;81.15;98938.56;106265;1315;23272;-61
2021/12/21 02:38:06;;;;;;;4.60;2.60;;;;;;;-6.22;80.97;98948.52;106173;1316;137972;-60
2021/12/21 02:40:34;;;;;;;5.70;2.80;;;;;;;-6.23;80.62;98950.27;105230;1323;22980;-61
2021/12/21 02:43:03;;;;;;;5.80;3.50;;;;;;;-6.24;80.59;98947.35;106158;1316;138069;-60
2021/12/21 02:45:31;;;;;;;8.90;4.20;;;;;;;-6.24;80.77;98953.02;106267;1316;22453;-59
2021/12/21 02:47:59;;;;;;;6.70;3.80;;;;;;;-6.24;81.02;98950.89;106145;1316;141113;-60
2021/12/21 02:50:27;;;;;;;7.50;3.20;;;;;;;-6.23;81.48;98948.41;106291;1322;23578;-60
2021/12/21 02:52:55;;;;;;;5.40;2.60;;;;;;;-6.22;81.44;98951.50;106244;1315;24268;-59
2021/12/21 02:55:23;;;;;;;5.50;2.30;;;;;;;-6.22;81.44;98950.83;106113;1317;139595;-59
2021/12/21 02:57:52;;;;;;;3.50;2.10;;;;;;;-6.22;81.33;98950.63;106097;1316;22571;-57
2021/12/21 03:00:20;;;;;;;4.10;2.20;;;;;;;-6.25;81.17;98948.66;106072;1316;138526;-60
2021/12/21 03:02:48;;;;;;;4.50;2.50;;;;;;;-6.25;81.29;98961.62;106236;1320;22519;-60
2021/12/21 03:05:16;;;;;;;8.30;3.30;;;;;;;-6.25;81.16;98962.52;106087;1315;22642;-59
2021/12/21 03:10:16;;;;;;;3.90;2.10;;;;;;;-6.25;81.19;98962.63;106148;1322;22477;-57
2021/12/21 03:15:31;;;;;;;3.70;1.90;;;;;;;-6.24;80.88;98965.23;106203;1315;22293;-58
2021/12/21 03:18:03;;;;;;;3.20;2.00;;;;;;;-6.23;80.81;98969.19;106109;1315;139450;-58
2021/12/21 03:20:32;;;;;;;2.90;2.10;;;;;;;-6.25;80.73;98973.91;106137;1316;22576;-57
2021/12/21 03:23:00;;;;;;;4.10;2.20;;;;;;;-6.26;80.68;98979.71;106109;1316;22403;-58
2021/12/21 03:25:34;;;;;;;5.50;2.30;;;;;;;-6.29;80.62;98978.28;106065;1316;137985;-58
2021/12/21 03:28:02;;;;;;;4.60;2.00;;;;;;;-6.31;80.74;98981.98;106240;1316;22532;-58
2021/12/21 03:30:30;;;;;;;5.70;2.40;;;;;;;-6.31;80.87;98986.42;105648;1315;138183;-58
2021/12/21 03:32:58;;;;;;;3.30;2.30;;;;;;;-6.32;80.88;98986.59;106292;1317;23244;-59
2021/12/21 03:35:26;;;;;;;3.80;2.30;;;;;;;-6.33;80.88;98988.96;106266;1316;22439;-59
2021/12/21 03:37:54;;;;;;;4.60;2.20;;;;;;;-6.32;80.91;98986.48;106038;1315;138608;-59
2021/12/21 03:40:22;;;;;;;3.20;1.90;;;;;;;-6.28;80.96;98985.27;106095;1318;22488;-60
2021/12/21 03:42:50;;;;;;;4.00;2.20;;;;;;;-6.26;80.84;98983.82;106011;1317;140130;-60
2021/12/21 03:45:18;;;;;;;4.40;2.40;;;;;;;-6.23;81.06;98991.62;106105;1317;22399;-60
2021/12/21 03:47:46;;;;;;;5.00;2.30;;;;;;;-6.22;81.06;98988.92;106166;1316;22443;-60
2021/12/21 03:50:18;;;;;;;4.10;2.70;;;;;;;-6.18;81.06;98991.90;106032;1316;138533;-60
2021/12/21 03:52:46;;;;;;;3.90;2.20;;;;;;;-6.16;81.87;98995.91;105874;1318;22481;-60
2021/12/21 03:55:15;;;;;;;4.10;2.80;;;;;;;-6.15;82.00;98996.02;106031;1315;138839;-60
2021/12/21 03:57:42;;;;;;;4.50;2.30;;;;;;;-6.15;81.90;98995.45;106106;1317;23140;-58
2021/12/21 04:00:12;;;;;;;7.10;2.70;;;;;;;-6.15;81.35;98987.83;104991;1315;138905;-58
2021/12/21 04:02:40;;;;;;;7.10;2.70;;;;;;;-6.16;80.86;98990.59;106289;1316;22450;-58
2021/12/21 04:05:09;;;;;;;5.50;2.90;;;;;;;-6.15;80.97;98994.95;106219;1316;22537;-57
2021/12/21 04:07:37;;;;;;;5.60;2.80;;;;;;;-6.16;80.91;98993.48;106099;1316;138103;-59
2021/12/21 04:10:06;;;;;;;4.30;2.90;;;;;;;-6.13;80.91;98999.20;106308;1315;22398;-58
2021/12/21 04:12:36;;;;;;;6.00;3.10;;;;;;;-6.12;80.77;98998.35;106124;1316;138191;-59
2021/12/21 04:16:05;;;;;;;5.50;2.60;;;;;;;-6.09;80.34;99003.35;99421;1356;545571;-58
2021/12/21 04:18:38;;;;;;;5.40;2.60;;;;;;;-6.11;80.05;98999.31;101112;1325;137647;-58
2021/12/21 04:21:09;;;;;;;5.30;2.20;;;;;;;-6.14;79.84;99003.97;100825;1329;25554;-58
2021/12/21 04:23:39;;;;;;;4.80;2.80;;;;;;;-6.17;79.98;99005.92;100885;1333;25477;-58
2021/12/21 04:26:08;;;;;;;5.00;2.70;;;;;;;-6.20;80.37;99009.14;103978;1332;137592;-59
2021/12/21 04:28:36;;;;;;;4.40;2.20;;;;;;;-6.22;80.53;99009.88;104789;1328;154115;-60
2021/12/21 04:31:04;;;;;;;7.90;3.80;;;;;;;-6.20;80.66;99015.10;105098;1328;137536;-59
2021/12/21 04:33:34;;;;;;;6.60;3.20;;;;;;;-6.18;80.69;99016.45;105150;1328;22659;-59
2021/12/21 04:36:02;;;;;;;4.60;2.30;;;;;;;-6.16;80.64;99018.95;104786;1333;138885;-59
2021/12/21 04:38:34;;;;;;;5.40;3.10;;;;;;;-6.16;80.55;99018.24;105197;1328;23300;-59
2021/12/21 04:41:12;;;;;;;5.80;3.10;;;;;;;-6.17;80.73;99017.02;105186;1328;22640;-59
2021/12/21 04:43:41;;;;;;;7.10;3.20;;;;;;;-6.17;81.05;99020.60;105009;1328;139174;-59
2021/12/21 04:46:09;;;;;;;5.80;2.60;;;;;;;-6.17;81.15;99022.49;105218;1328;22624;-59
2021/12/21 04:48:38;;;;;;;6.30;3.10;;;;;;;-6.17;81.19;99024.35;105091;1328;137787;-59
2021/12/21 04:51:06;;;;;;;5.80;2.80;;;;;;;-6.19;81.54;99027.89;105176;1328;22416;-59
2021/12/21 04:53:34;;;;;;;4.80;2.90;;;;;;;-6.18;81.86;99032.89;105211;1331;22529;-59
2021/12/21 04:56:02;;;;;;;9.40;3.70;;;;;;;-6.18;82.32;99033.13;105076;1326;138657;-59
2021/12/21 04:58:31;;;;;;;6.50;3.20;;;;;;;-6.19;82.72;99031.10;105212;1326;22523;-60
2021/12/21 05:00:59;;;;;;;5.00;3.20;;;;;;;-6.21;83.04;99039.73;105447;1324;139681;-59
2021/12/21 05:03:27;;;;;;;10.70;3.50;;;;;;;-6.21;83.46;99052.88;105532;1325;22478;-59
2021/12/21 05:05:55;;;;;;;3.40;2.00;;;;;;;-6.24;83.83;99054.84;104694;1318;25264;-57
2021/12/21 05:08:26;;;;;;;2.80;1.40;;;;;;;-6.37;84.01;99060.80;101699;1318;137554;-59
2021/12/21 05:11:05;;;;;;;2.00;1.40;;;;;;;-6.56;84.02;99065.21;101755;1324;23862;-56
2021/12/21 05:13:38;;;;;;;2.70;1.50;;;;;;;-6.73;84.40;99063.19;101750;1318;137897;-51
2021/12/21 05:16:06;;;;;;;3.90;2.20;;;;;;;-6.87;84.74;99068.13;101627;1319;22777;-58
2021/12/21 05:18:35;;;;;;;4.40;2.30;;;;;;;-6.97;85.10;99072.58;105833;1319;139228;-52
2021/12/21 05:21:04;;;;;;;2.30;1.70;;;;;;;-7.05;85.14;99077.20;106047;1320;23217;-53
2021/12/21 05:23:51;;;;;;;4.30;1.90;;;;;;;-7.17;85.60;99084.61;105881;1319;22639;-52
2021/12/21 05:26:19;;;;;;;3.00;1.90;;;;;;;-7.24;86.07;99086.92;105929;1318;139034;-56
2021/12/21 05:28:47;;;;;;;2.30;1.70;;;;;;;-7.29;86.30;99090.25;106014;1318;22517;-58
2021/12/21 05:31:15;;;;;;;4.20;2.10;;;;;;;-7.33;86.57;99095.48;105903;1318;138154;-57
2021/12/21 05:33:45;;;;;;;4.30;2.60;;;;;;;-7.37;86.70;99099.41;105994;1319;23302;-56
2021/12/21 05:36:12;;;;;;;4.50;1.80;;;;;;;-7.40;86.31;99101.46;105969;1318;138790;-58
2021/12/21 05:38:47;;;;;;;3.50;2.50;;;;;;;-7.45;86.58;99106.34;106008;1318;22552;-58
2021/12/21 05:41:23;;;;;;;2.60;1.70;;;;;;;-7.50;86.90;99110.02;106062;1318;22274;-58
2021/12/21 05:43:51;;;;;;;2.70;1.80;;;;;;;-7.52;87.23;99113.64;105902;1318;138732;-58
2021/12/21 05:46:19;;;;;;;4.40;2.40;;;;;;;-7.53;87.37;99115.65;106012;1318;22489;-58
2021/12/21 05:48:51;;;;;;;3.40;2.00;;;;;;;-7.52;87.33;99113.77;105936;1319;139041;-60
2021/12/21 05:51:20;;;;;;;2.20;1.80;;;;;;;-7.55;87.14;99100.48;106034;1318;22399;-60
2021/12/21 05:53:49;;;;;;;2.20;2.00;;;;;;;-7.54;86.96;99098.26;105732;1322;22551;-59
2021/12/21 05:56:16;;;;;;;4.00;2.10;;;;;;;-7.53;86.43;99107.16;105975;1319;138202;-59
2021/12/21 05:58:44;;;;;;;7.20;3.40;;;;;;;-7.55;86.11;99111.94;106001;1318;22283;-59
2021/12/21 06:01:12;;;;;;;5.00;2.40;;;;;;;-7.56;85.53;99117.01;105776;1323;139158;-59
2021/12/21 06:03:40;;;;;;;4.10;2.20;;;;;;;-7.58;85.31;99123.35;106025;1318;22531;-59
2021/12/21 06:06:13;;;;;;;4.00;2.30;;;;;;;-7.58;85.24;99131.45;104231;1318;138461;-58
2021/12/21 06:08:45;;;;;;;3.00;2.10;;;;;;;-7.57;85.37;99142.82;101737;1318;24480;-57
2021/12/21 06:11:14;;;;;;;3.00;2.30;;;;;;;-7.54;85.13;99152.61;101807;1323;24305;-58
2021/12/21 06:22:44;;;;;;;3.30;2.60;;;;;;;-7.51;84.90;99162.65;106079;1318;22495;-59
2021/12/21 06:27:41;;;;;;;6.50;2.70;;;;;;;-7.68;84.97;99180.95;106125;1319;22302;-59
2021/12/21 06:30:10;;;;;;;3.20;2.20;;;;;;;-7.76;85.03;99186.40;105968;1319;138931;-60
2021/12/21 06:32:39;;;;;;;7.80;2.60;;;;;;;-7.86;84.66;99182.72;105932;1321;22710;-59
2021/12/21 06:35:08;;;;;;;6.60;3.30;;;;;;;-7.94;84.11;99187.95;105933;1320;22467;-60
2021/12/21 06:37:36;;;;;;;6.60;3.30;;;;;;;-8.04;82.66;99184.47;105466;1326;138268;-59
2021/12/21 06:40:05;;;;;;;5.00;2.80;;;;;;;-8.12;82.49;99186.22;105753;1319;22654;-59
2021/12/21 06:42:33;;;;;;;3.90;2.00;;;;;;;-8.18;82.21;99189.55;105938;1318;139257;-59
2021/12/21 06:45:02;;;;;;;2.20;1.60;;;;;;;-8.22;81.16;99191.48;105942;1318;23296;-59
2021/12/21 06:53:03;;;;;;;5.00;1.80;;;;;;;-8.33;77.61;99210.73;105979;1318;22457;-59
2021/12/21 06:55:31;;;;;;;3.80;2.00;;;;;;;-8.35;76.15;99212.02;105981;1319;138626;-59
2021/12/21 06:57:58;;;;;;;2.20;1.80;;;;;;;-8.40;75.81;99212.48;106029;1319;22387;-59
2021/12/21 07:00:26;;;;;;;2.80;1.80;;;;;;;-8.46;74.99;99211.33;105846;1326;140723;-59
2021/12/21 07:02:54;;;;;;;1.50;1.40;;;;;;;-8.49;74.76;99221.32;106125;1323;22385;-59
2021/12/21 07:05:23;;;;;;;3.60;2.30;;;;;;;-8.55;75.96;99229.30;105981;1319;22510;-59
2021/12/21 07:07:52;;;;;;;3.00;1.80;;;;;;;-8.58;76.17;99237.12;106028;1319;138352;-59
2021/12/21 07:10:27;;;;;;;3.30;1.90;;;;;;;-8.62;75.62;99238.84;106149;1317;23503;-59
2021/12/21 07:18:30;;;;;;;6.40;2.50;;;;;;;-8.72;73.13;99248.16;105848;1322;138851;-59
2021/12/21 07:20:59;;;;;;;3.80;2.60;;;;;;;-8.75;73.04;99253.11;106112;1319;22477;-59
2021/12/21 07:23:30;;;;;;;4.10;3.10;;;;;;;-8.77;73.88;99254.16;106149;1319;22302;-59
2021/12/21 07:25:58;;;;;;;7.80;2.10;;;;;;;-8.80;75.43;99254.13;106024;1319;138454;-59
2021/12/21 07:28:26;;;;;;;4.30;2.50;;;;;;;-8.82;76.18;99258.55;106095;1319;22499;-59
2021/12/21 07:30:56;;;;;;;7.30;2.60;;;;;;;-8.84;76.14;99258.80;106067;1319;139025;-59
2021/12/21 07:33:23;;;;;;;4.30;2.80;;;;;;;-8.87;74.03;99262.95;106146;1319;22465;-59
2021/12/21 07:35:52;;;;;;;3.80;1.90;;;;;;;-8.96;74.26;99267.71;106121;1325;22405;-59
2021/12/21 07:38:22;;;;;;;5.10;2.50;;;;;;;-8.99;72.96;99267.52;106051;1319;138898;-59
2021/12/21 07:40:50;;;;;;;3.60;1.90;;;;;;;-9.02;71.86;99274.46;106136;1319;22511;-59
2021/12/21 07:43:18;;;;;;;3.40;1.60;;;;;;;-9.06;70.51;99281.67;106000;1319;138371;-58
2021/12/21 07:45:45;;;;;;;3.20;1.30;;;;;;;-9.11;69.09;99278.50;105080;1319;22520;-58
2021/12/21 07:48:14;;;;;;;2.40;1.30;;;;;;;-9.26;68.06;99284.92;106030;1319;138676;-59
2021/12/21 07:50:42;;;;;;;4.00;1.50;;;;;;;-9.41;68.23;99293.98;105022;1319;23859;-59
2021/12/21 07:53:10;;;;;;;3.00;1.60;;;;;;;-9.50;67.71;99290.06;106122;1319;22462;-58
2021/12/21 07:55:38;;;;;;;3.40;1.80;;;;;;;-9.56;67.62;99291.38;106043;1319;139066;-58
2021/12/21 07:58:07;;;;;;;5.00;2.10;;;;;;;-9.60;67.68;99298.05;106143;1319;22462;-58
2021/12/21 08:00:36;;;;;;;4.70;2.00;;;;;;;-9.62;67.46;99304.89;106053;1319;141734;-58
2021/12/21 08:03:04;;;;;;;2.50;1.50;;;;;;;-9.65;67.36;99307.77;105948;1319;23583;-58
2021/12/21 08:05:34;;;;;;;8.60;2.20;;;;;;;-9.68;67.44;99308.23;106140;1319;23258;-58
2021/12/21 08:08:22;;;;;;;4.40;2.50;;;;;;;-9.68;67.58;99306.95;105998;1319;138291;-57
2021/12/21 08:11:07;;;;;;;5.00;2.20;;;;;;;-9.67;67.35;99314.14;106121;1319;22392;-57
2021/12/21 08:13:36;;;;;;;3.30;1.80;;;;;;;-9.67;66.42;99315.83;105966;1318;138463;-58
2021/12/21 08:16:04;;;;;;;4.40;2.40;;;;;;;-9.70;67.04;99320.38;104701;1319;22919;-67
2021/12/21 08:18:32;;;;;;;4.30;2.60;;;;;;;-9.74;67.30;99316.98;102282;1319;138774;-67
2021/12/21 08:21:00;;;;;;;7.70;3.30;;;;;;;-9.75;67.25;99318.52;102293;1319;22681;-68
2021/12/21 08:23:28;;;;;;;8.70;2.90;;;;;;;-9.76;67.46;99318.08;106085;1319;23527;-68
2021/12/21 08:25:57;;;;;;;12.20;4.70;;;;;;;-9.75;67.09;99320.60;106013;1318;139145;-68
2021/12/21 08:28:25;;;;;;;4.90;2.50;;;;;;;-9.76;68.97;99332.11;106114;1319;23442;-68
2021/12/21 08:30:52;;;;;;;3.40;1.80;;;;;;;-9.83;72.83;99342.92;106039;1319;139932;-68
2021/12/21 08:33:22;;;;;;;2.80;1.80;;;;;;;-9.91;71.36;99346.65;106140;1318;22561;-68
2021/12/21 08:35:50;;;;;;;4.30;1.60;;;;;;;-10.02;70.85;99354.04;106142;1319;23174;-68
2021/12/21 08:38:31;;;;;;;3.00;1.40;;;;;;;-10.10;68.34;99352.82;105989;1318;143081;-70
2021/12/21 08:41:00;;;;;;;2.20;1.70;;;;;;;-10.15;68.19;99356.92;106135;1318;22357;-69
2021/12/21 08:43:29;;;;;;;3.00;1.90;;;;;;;-10.19;68.21;99354.52;106019;1319;138313;-70
2021/12/21 08:45:57;;;;;;;6.10;2.50;;;;;;;-10.20;67.55;99353.17;106139;1319;22649;-70
2021/12/21 08:48:26;;;;;;;7.50;2.30;;;;;;;-10.20;66.94;99358.78;106004;1316;138431;-69
2021/12/21 08:50:55;;;;;;;3.10;2.00;;;;;;;-10.21;67.21;99364.39;106102;1316;22397;-69
2021/12/21 08:53:23;;;;;;;3.60;2.00;;;;;;;-10.25;67.52;99364.72;106108;1313;22507;-70
2021/12/21 08:55:51;;;;;;;6.10;2.30;;;;;;;-10.27;67.47;99365.26;106013;1319;138450;-69
2021/12/21 08:58:19;;;;;;;5.20;2.70;;;;;;;-10.30;67.28;99365.13;106153;1319;22613;-68
2021/12/21 09:00:48;;;;;;;4.10;1.70;;;;;;;-10.31;66.83;99368.71;106048;1319;139331;-68
2021/12/21 09:03:16;;;;;;;5.20;2.90;;;;;;;-10.32;66.74;99373.00;106106;1319;22400;-68
2021/12/21 09:05:44;;;;;;;3.30;2.00;;;;;;;-10.32;66.57;99373.52;105624;1319;22616;-68
2021/12/21 09:08:13;;;;;;;4.50;2.10;;;;;;;-10.31;66.31;99375.96;106051;1322;139285;-68
2021/12/21 09:10:41;;;;;;;4.00;2.00;;;;;;;-10.32;66.64;99374.46;106181;1318;22547;-68
2021/12/21 09:13:09;;;;;;;5.90;2.50;;;;;;;-10.32;66.31;99371.95;106171;1319;138310;-68
2021/12/21 09:15:38;;;;;;;4.60;2.50;;;;;;;-10.33;66.11;99371.38;106175;1318;23441;-62
2021/12/21 09:18:06;;;;;;;4.60;2.60;;;;;;;-10.36;66.48;99370.48;106179;1315;139426;-62
2021/12/21 09:20:34;;;;;;;5.00;2.90;;;;;;;-10.34;66.43;99368.42;106288;1315;22961;-62
2021/12/21 09:23:02;;;;;;;6.60;3.50;;;;;;;-10.31;66.57;99374.67;106282;1315;22424;-62
2021/12/21 09:25:30;;;;;;;6.50;3.10;;;;;;;-10.31;66.03;99376.10;106114;1314;138555;-62
2021/12/21 09:27:59;;;;;;;5.60;2.70;;;;;;;-10.32;66.52;99373.19;106296;1321;22468;-61
2021/12/21 09:30:28;;;;;;;6.50;3.00;;;;;;;-10.32;66.17;99382.36;106214;1316;139705;-61
2021/12/21 09:32:56;;;;;;;7.80;4.10;;;;;;;-10.35;66.10;99382.70;106310;1315;22528;-61
2021/12/21 09:35:24;;;;;;;7.30;3.60;;;;;;;-10.34;66.46;99377.08;106281;1316;23547;-61
2021/12/21 09:37:53;;;;;;;8.70;3.40;;;;;;;-10.34;66.20;99380.20;106011;1315;138370;-61
2021/12/21 09:40:22;;;;;;;5.10;2.90;;;;;;;-10.34;65.95;99379.35;106298;1316;22552;-61
2021/12/21 09:42:50;;;;;;;5.30;2.40;;;;;;;-10.39;65.77;99378.84;106257;1316;139527;-61
2021/12/21 09:45:19;;;;;;;4.90;2.60;;;;;;;-10.42;66.02;99378.09;106324;1315;22487;-68
2021/12/21 09:47:49;;;;;;;9.30;3.50;;;;;;;-10.42;66.14;99372.95;106371;1315;22507;-67
2021/12/21 09:50:18;;;;;;;11.10;4.30;;;;;;;-10.40;66.48;99366.27;106171;1316;140363;-68
2021/12/21 09:52:46;;;;;;;4.60;2.60;;;;;;;-10.37;66.53;99372.15;103233;1316;22598;-68
2021/12/21 09:55:15;;;;;;;5.20;2.60;;;;;;;-10.33;64.94;99374.84;101919;1318;138561;-70
2021/12/21 09:57:43;;;;;;;7.50;3.40;;;;;;;-10.27;65.35;99378.94;106197;1316;23266;-69
2021/12/21 10:00:32;;;;;;;5.60;2.70;;;;;;;-10.22;64.63;99380.03;106243;1316;138918;-69
2021/12/21 10:03:09;;;;;;;9.20;4.00;;;;;;;-10.20;63.77;99383.59;106303;1316;23216;-67
2021/12/21 10:05:40;;;;;;;2.80;1.90;;;;;;;-10.23;63.87;99387.56;106359;1316;22504;-68
2021/12/21 10:08:18;;;;;;;7.00;2.60;;;;;;;-10.31;64.94;99390.10;106250;1317;140178;-68
2021/12/21 10:10:48;;;;;;;9.10;3.10;;;;;;;-10.34;64.98;99393.04;106344;1315;22396;-68
2021/12/21 10:13:21;;;;;;;5.60;2.60;;;;;;;-10.38;64.90;99388.94;106145;1320;139150;-68
2021/12/21 10:15:51;;;;;;;6.30;3.10;;;;;;;-10.39;65.18;99391.17;106362;1315;22433;-68
2021/12/21 10:18:32;;;;;;;10.90;3.40;;;;;;;-10.36;65.43;99385.41;106189;1320;140051;-67
2021/12/21 10:21:02;;;;;;;8.90;3.90;;;;;;;-10.29;65.29;99390.32;106260;1315;22943;-67
2021/12/21 10:23:40;;;;;;;5.10;3.10;;;;;;;-10.24;64.69;99389.14;106130;1316;22409;-67
2021/12/21 10:26:10;;;;;;;5.40;2.10;;;;;;;-10.21;64.27;99390.48;106207;1316;138708;-67
2021/12/21 10:28:42;;;;;;;5.70;2.60;;;;;;;-10.22;64.98;99392.34;106296;1315;22348;-66
2021/12/21 10:31:12;;;;;;;7.60;3.00;;;;;;;-10.23;66.37;99393.19;106115;1316;138029;-67
2021/12/21 10:33:44;;;;;;;4.60;2.10;;;;;;;-10.22;66.04;99402.17;106356;1316;23310;-66
2021/12/21 10:36:13;;;;;;;5.90;2.60;;;;;;;-10.20;64.84;99407.30;105522;1320;138494;-67
2021/12/21 10:38:50;;;;;;;4.80;2.40;;;;;;;-10.19;64.56;99406.64;106261;1316;23583;-68
2021/12/21 10:41:34;;;;;;;5.80;2.10;;;;;;;-10.19;65.00;99409.96;106372;1319;22408;-68
2021/12/21 10:44:10;;;;;;;8.10;3.70;;;;;;;-10.19;64.98;99408.44;106232;1316;138396;-69
2021/12/21 10:46:45;;;;;;;9.30;3.40;;;;;;;-10.18;64.95;99412.31;103824;1316;22642;-68
2021/12/21 10:49:33;;;;;;;6.90;3.20;;;;;;;-10.11;64.92;99416.81;102164;1316;138372;-68
2021/12/21 10:52:10;;;;;;;12.10;4.60;;;;;;;-10.08;65.61;99410.94;102253;1316;25453;-68
2021/12/21 10:54:46;;;;;;;4.80;3.10;;;;;;;-10.10;66.67;99411.67;104101;1316;138543;-68
2021/12/21 10:57:16;;;;;;;7.20;3.40;;;;;;;-10.13;66.75;99418.39;102628;1315;22642;-68
2021/12/21 10:59:49;;;;;;;5.20;2.80;;;;;;;-10.13;67.10;99422.44;104607;1315;25442;-68
2021/12/21 11:02:22;;;;;;;5.70;4.00;;;;;;;-10.11;66.77;99421.76;103215;1315;140482;-67
2021/12/21 11:04:59;;;;;;;5.50;3.90;;;;;;;-10.12;66.35;99426.10;102467;1315;25413;-68
2021/12/21 11:07:34;;;;;;;3.50;2.00;;;;;;;-10.15;65.34;99424.39;102287;1315;138156;-67
2021/12/21 11:10:28;;;;;;;4.70;2.10;;;;;;;-10.22;64.64;99425.89;105822;1316;22361;-69
2021/12/21 11:13:12;;;;;;;6.80;3.40;;;;;;;-10.31;63.98;99427.55;106256;1316;138257;-68
2021/12/21 11:15:43;;;;;;;8.50;3.50;;;;;;;-10.37;64.05;99425.77;106314;1315;22416;-68
2021/12/21 11:18:16;;;;;;;10.20;3.50;;;;;;;-10.42;63.75;99423.75;106143;1316;138372;-68
2021/12/21 11:20:58;;;;;;;13.00;7.80;;;;;;;-10.45;64.05;99426.42;106321;1315;22412;-69
2021/12/21 11:23:26;;;;;;;7.20;3.70;;;;;;;-10.46;64.98;99427.15;106261;1315;22397;-68
2021/12/21 11:25:56;;;;;;;14.00;6.10;;;;;;;-10.42;64.63;99427.71;106202;1316;139365;-68
2021/12/21 11:28:35;;;;;;;7.70;4.10;;;;;;;-10.37;64.96;99429.93;106335;1316;22458;-68
2021/12/21 11:31:05;;;;;;;7.70;3.80;;;;;;;-10.28;65.11;99427.96;106236;1316;139865;-69
2021/12/21 11:33:43;;;;;;;10.10;3.30;;;;;;;-10.20;64.97;99433.64;106314;1315;22462;-68
2021/12/21 11:39:03;;;;;;;4.90;2.20;;;;;;;-10.10;65.20;99439.89;106222;1316;22530;-68
2021/12/21 11:41:32;;;;;;;5.30;2.40;;;;;;;-10.13;64.49;99444.56;106314;1315;22659;-69
2021/12/21 11:44:09;;;;;;;6.00;2.20;;;;;;;-10.17;64.10;99450.41;106180;1315;139341;-68
2021/12/21 11:46:53;;;;;;;4.30;2.40;;;;;;;-10.24;64.01;99447.84;103872;1315;23496;-68
2021/12/21 11:49:24;;;;;;;4.20;2.30;;;;;;;-10.29;64.02;99456.73;102175;1315;139205;-68
2021/12/21 11:51:51;;;;;;;2.60;1.90;;;;;;;-10.34;64.60;99459.20;106330;1319;23334;-68
2021/12/21 11:54:22;;;;;;;3.50;1.90;;;;;;;-10.40;64.85;99468.44;105778;1316;138604;-68
2021/12/21 11:56:51;;;;;;;3.30;2.20;;;;;;;-10.46;64.62;99469.88;102439;1315;22677;-68
2021/12/21 11:59:22;;;;;;;4.30;2.70;;;;;;;-10.55;64.52;99473.91;102365;1316;24260;-68
2021/12/21 12:01:50;;;;;;;5.50;2.40;;;;;;;-10.61;64.46;99473.52;102118;1316;139638;-68
2021/12/21 12:04:19;;;;;;;4.40;2.30;;;;;;;-10.65;64.48;99473.67;102216;1320;26547;-68
2021/12/21 12:06:52;;;;;;;5.30;2.40;;;;;;;-10.68;64.29;99477.80;106176;1316;138371;-69
2021/12/21 12:09:30;;;;;;;8.40;4.10;;;;;;;-10.70;64.62;99482.90;105830;1316;22297;-69
2021/12/21 12:12:05;;;;;;;7.50;3.50;;;;;;;-10.68;64.88;99483.11;106358;1319;22578;-69
2021/12/21 12:14:35;;;;;;;10.40;4.20;;;;;;;-10.67;65.09;99485.27;106230;1316;139826;-69
2021/12/21 12:17:30;;;;;;;5.20;2.90;;;;;;;-10.64;65.03;99488.74;106318;1315;22565;-62
2021/12/21 12:20:12;;;;;;;6.00;3.40;;;;;;;-10.61;64.60;99493.20;102157;1316;138444;-61
2021/12/21 12:22:44;;;;;;;8.50;3.90;;;;;;;-10.58;64.44;99499.98;106198;1316;23742;-62
2021/12/21 12:25:20;;;;;;;4.90;2.60;;;;;;;-10.54;63.78;99507.89;106194;1316;139376;-62
2021/12/21 12:27:50;;;;;;;4.80;3.40;;;;;;;-10.55;66.47;99505.89;106327;1319;22498;-62
2021/12/21 12:30:20;;;;;;;7.30;3.40;;;;;;;-10.55;67.96;99514.52;105960;1316;274781;-62
2021/12/21 12:32:52;;;;;;;5.60;2.80;;;;;;;-10.55;67.12;99519.91;106325;1315;22505;-62
2021/12/21 12:35:25;;;;;;;8.20;2.90;;;;;;;-10.56;65.93;99518.27;106240;1316;23407;-63
2021/12/21 12:37:57;;;;;;;6.00;2.60;;;;;;;-10.57;65.24;99518.66;106204;1316;138961;-63
2021/12/21 12:40:33;;;;;;;4.80;2.50;;;;;;;-10.57;64.76;99516.91;106259;1315;23150;-62